createdAt,value
2022-08-17T00:00:08.090Z,973.89
2022-08-17T00:12:41.535Z,973.86
2022-08-17T00:24:08.981Z,973.79
2022-08-17T00:36:09.481Z,973.83
2022-08-17T00:48:11.504Z,973.82
2022-08-17T01:00:10.320Z,973.76
2022-08-17T01:12:10.790Z,973.85
2022-08-17T01:24:11.255Z,973.80
2022-08-17T01:36:11.665Z,973.87
2022-08-17T01:48:12.177Z,973.90
2022-08-17T02:00:12.653Z,973.96
2022-08-17T02:12:39.136Z,973.92
2022-08-17T02:24:13.518Z,973.88
2022-08-17T02:36:13.981Z,973.92
2022-08-17T02:48:14.460Z,973.88
2022-08-17T03:00:14.898Z,973.84
2022-08-17T03:12:15.401Z,973.88
2022-08-17T03:24:15.778Z,973.87
2022-08-17T03:36:16.264Z,973.87
2022-08-17T03:48:16.704Z,973.90
2022-08-17T04:00:17.176Z,973.90
2022-08-17T04:12:17.678Z,973.94
2022-08-17T04:24:18.091Z,973.97
2022-08-17T04:36:18.600Z,974.03
2022-08-17T04:48:18.976Z,973.97
2022-08-17T05:00:19.433Z,974.06
2022-08-17T05:12:19.902Z,974.02
2022-08-17T05:24:39.092Z,974.00
2022-08-17T05:36:43.723Z,974.05
2022-08-17T05:48:21.349Z,974.03
2022-08-17T06:00:21.715Z,974.02
2022-08-17T06:12:22.160Z,974.03
2022-08-17T06:24:22.601Z,974.04
2022-08-17T06:36:23.096Z,974.04
2022-08-17T06:48:23.542Z,974.03
2022-08-17T07:00:23.979Z,973.91
2022-08-17T07:12:24.432Z,973.98
2022-08-17T07:24:26.377Z,974.00
2022-08-17T07:36:29.636Z,974.09
2022-08-17T07:48:25.815Z,973.90
2022-08-17T08:00:32.135Z,973.93
2022-08-17T08:12:28.939Z,973.92
2022-08-17T08:24:30.116Z,973.91
2022-08-17T08:37:15.768Z,974.08
2022-08-17T08:48:53.955Z,973.86
2022-08-17T09:00:28.581Z,973.80
2022-08-17T09:12:29.004Z,973.87
2022-08-17T09:24:29.478Z,973.83
2022-08-17T09:36:29.956Z,973.83
2022-08-17T09:48:30.338Z,973.85
2022-08-17T10:00:30.850Z,973.89
2022-08-17T10:12:31.264Z,973.68
2022-08-17T10:24:31.732Z,973.73
2022-08-17T10:36:32.202Z,973.71
2022-08-17T10:48:32.671Z,973.53
2022-08-17T11:00:33.156Z,973.45
2022-08-17T11:12:33.572Z,973.51
2022-08-17T11:24:34.031Z,973.40
2022-08-17T11:36:34.518Z,973.32
2022-08-17T11:48:35.490Z,973.14
2022-08-17T12:00:35.388Z,973.15
2022-08-17T12:12:35.872Z,973.02
2022-08-17T12:24:36.345Z,973.01
2022-08-17T12:36:36.736Z,973.04
2022-08-17T12:48:37.248Z,972.82
2022-08-17T13:00:37.725Z,972.93
2022-08-17T13:12:38.160Z,972.73
2022-08-17T13:24:38.762Z,972.72
2022-08-17T13:36:39.108Z,972.65
2022-08-17T13:48:39.494Z,972.60
2022-08-17T14:00:40.013Z,972.59
2022-08-17T14:12:40.454Z,972.58
2022-08-17T14:24:44.634Z,972.58
2022-08-17T14:36:41.325Z,972.44
2022-08-17T14:48:41.816Z,972.59
2022-08-17T15:00:42.224Z,972.63
2022-08-17T15:12:42.738Z,972.68
2022-08-17T15:24:43.165Z,972.60
2022-08-17T15:36:49.115Z,972.53
2022-08-17T15:48:44.102Z,972.52
2022-08-17T16:00:49.918Z,972.60
2022-08-17T16:12:44.996Z,972.55
2022-08-17T16:24:47.843Z,972.59
2022-08-17T16:36:55.741Z,972.50
2022-08-17T16:48:46.384Z,972.69
2022-08-17T17:00:46.863Z,972.68
2022-08-17T17:13:00.898Z,972.67
2022-08-17T17:24:50.188Z,972.71
2022-08-17T17:36:48.187Z,972.67
2022-08-17T17:48:48.656Z,972.73
2022-08-17T18:00:49.132Z,972.84
2022-08-17T18:12:49.558Z,973.03
2022-08-17T18:24:50.047Z,972.91
2022-08-17T18:36:50.537Z,973.17
2022-08-17T18:48:50.974Z,973.20
2022-08-17T19:00:51.416Z,973.19
2022-08-17T19:12:51.969Z,973.25
2022-08-17T19:24:56.115Z,973.14
2022-08-17T19:36:52.784Z,973.17
2022-08-17T19:48:53.223Z,973.12
2022-08-17T20:00:53.683Z,973.16
2022-08-17T20:12:54.142Z,972.99
2022-08-17T20:24:54.615Z,973.23
2022-08-17T20:36:55.053Z,973.38
2022-08-17T20:48:55.501Z,973.69
2022-08-17T21:00:55.964Z,973.76
2022-08-17T21:12:56.453Z,973.86
2022-08-17T21:24:56.882Z,973.90
2022-08-17T21:36:57.291Z,973.75
2022-08-17T21:48:57.792Z,973.70
2022-08-17T22:00:58.300Z,973.99
2022-08-17T22:12:58.717Z,973.74
2022-08-17T22:24:59.167Z,973.70
2022-08-17T22:37:03.684Z,973.65
2022-08-17T22:49:00.102Z,973.39
2022-08-17T23:01:00.522Z,973.42
2022-08-17T23:13:00.974Z,973.51
2022-08-17T23:25:01.406Z,973.23
2022-08-17T23:37:01.883Z,973.03
2022-08-17T23:49:02.341Z,972.84
